Share

Worthington, MO

12:11 AM CDT on April 24, 2014 (GMT -0500)
KMOLANCA2 Elev 915 ft | 40.52 °N, 92.52 °W | Change Station

Current weather conditions updated 10 minutes ago

Clear
Clear
53.2 °F
Feels Like 53.2 °F
N
5.0
Wind Variable Wind from ESE
Sunrise 6:19 AM
Sunset 7:59 PM
Moon Waning Crescent

Today is forecast to be Much Cooler than yesterday. .

Pressure 29.82 in
Visibility 10.0 miles
Clouds Clear
Dew Point 38 °F
Humidity 57%
Rainfall -9999.00 in
Snow Depth Not available.
UV 0 out of 16
Pollen 10.40 out of 12
Air Quality Not available.
Flu Activity Sporadic
METAR KTVK 240455Z AUTO 12014KT 10SM CLR 12/02 A2982 RMK AO2

More Conditions Fewer Conditions

Pressure 29.82 in
Visibility 10.0 miles
Clouds Clear
Dew Point 38 °F
Humidity 57%
Rainfall -9999.00 in
Snow Depth Not available.
UV 0 out of 16
Pollen 10.40 out of 12
Air Quality Not available.
Flu Activity Sporadic
METAR KTVK 240455Z AUTO 12014KT 10SM CLR 12/02 A2982 RMK AO2

More Conditions Fewer Conditions

10-Day Weather Forecast

Almanac

Astronomy

Apr. 24, 2014 Rise Set
Actual Time 6:19 AM CDT 7:59 PM CDT
Civil Twilight 5:50 AM CDT 8:28 PM CDT
Nautical Twilight 5:15 AM CDT 9:03 PM CDT
Astronomical Twilight 4:38 AM CDT 9:41 PM CDT
Moon 3:31 AM CDT 3:14 PM CDT
Length of Visible Light 14h 37m
Length of Day
13h 39m
Tomorrow will be 2m 25s longer.
Waning Crescent, 29% of the Moon is Illuminated
Today
Waning Crescent
Apr 29
New
May 6
First Quarter
May 14
Full
May 21
Last Quarter

Today's Extremes

State Highs State Lows

Community

  • Stacked
    Stacked
  • clouds approaching Red Sox Nation
    clouds approaching Red Sox Nation
  • Balance
    Balance
  • Nestled In
    Nestled In
  • Stunning Sunrise
    Stunning Sunrise

WunderPhotos

Upload Photos

1,704,564 photos uploaded!

WunderBlogs® & News

Nearby

Snow Depth

Station Depth Elevation
No new snow has been reported.

Coastal Water Temperatures

Place Temperature
No Stations Reporting

Earthquake Activity

City Distance Mag. Time & Date
No recent earthquake activity has been reported nearby.
Minimum magnitude displayed is 2.5.

Nearby Weather Stations

Station Location Temp. Dew Point Humidity Wind Precip. Elev Updated Type
Lancaster, MO 53.2 °F 38 °F 57% ESE  at  5.0 mph - / hr 915 ft 12:00 AM CDT Normal
Unionville MO, Unionville, MO 54.0 °F 37 °F 53% SE  at  10.7 mph 0.00 in / hr 1053 ft 12:11 AM CDT Rapid Fire
Milan, MO 54.3 °F 28 °F 36% SE  at  8.7 mph 0.00 in / hr 910 ft 12:11 AM CDT Rapid Fire

Show More Stations Show Fewer Stations

What do you think?

We're not finished. Please let us know what you like, what you don't like, and what you are still missing.